メインページ
METAR-TAF:

METAR-TAF

空港 :

カラチ, パキスタン

ジンナー国際空港

緯度: 24-54N, 経度: 067-08E, 海抜: 21m

現時点の気象観測

当レポートは40分前の22:55(UTC)に作成
南西の風 7kt
気温 27°C
湿度 74%
気圧 1008 hPa
視程: 6000m
高度2000ftの雲は散在している

METAR: OPKC 232255Z 22007KT 6000 SCT020 27/22 Q1008 NOSIG

時間: 04:35 (23:35 UTC)

予報

当レポートは7時間35分前の16:00(UTC)に作成
予報は23日の 18時(UTC)から 24日の 24時(UTC)まで有効
西/南西の風 8kt、最大18ktの突風を伴う
視程: 6000m
高度2000ftの雲は散在している
24日の 00時(UTC)から 24日の 04時(UTC)まで一時的に
西/南西の風 8kt
視程: 4000m
高度2000ftの雲は散在している
24日の 04時(UTC)から 24日の 06時(UTC)まで徐々に
南西の風 10kt、最大20ktの突風を伴う
視程: 7000m
高度2000ftの雲は散在している
24日の 1700時(UTC)から
南西の風 10kt
視程: 6000m
高度2000ftの雲は散在している

TAF: OPKC 231600Z 2318/2424 24008G18KT 6000 SCT020 TEMPO 2400/2404 25008KT 4000 FU SCT020 BECMG 2404/2406 23010G20KT 7000 SCT020 FM241700 23010KT 6000 SCT020

4,000以上の空港の気象観測と天気予報(METAR報とTAF報)

利用可能な観測所は地図上に黄色い丸と赤い丸で示す。

丸の上にカーソルを重ねると観測所名を参照できる。

次にクリックすると気象観測と天気予報を参照できる。

マップの切り替え:黒色「×」印の緑ボタンをクリックして拡大、「-」印の緑ボタンをクリックして縮小、緑色の三角印をクリックして隣りの地図に切り替え


METAR-TAF: